Flight Track Log - Related Links

Times and Time Zones

All times are in EDT time to prevent confusion due to time zone crossing. See the UAL4150 flight status page for this flight to view local times or setup timezone preferences in your user account.

Time Position Orientation Groundspeed Altitude Reporting Facility
EDT Latitude Longitude Course Direction KTS MPH feet Rate Location/Type
Sun 12:31:00 PM 38.7434 -77.3312 123° Southeast  Level Estimated
Sun 12:32:00 PM 38.6753 -77.2885 125° Southeast  Level Estimated
Sun 12:33:00 PM 38.6631 -77.1927 99° East  Level FlightAware Approximate
Sun 12:34:00 PM 38.5940 -77.1529 126° Southeast  Level Estimated
Sun 12:35:00 PM 38.5248 -77.1132 180° South  Level Estimated
Sun 12:36:00 PM 38.4557 -77.0736 165° South  Level Estimated
Sun 12:37:00 PM 38.3865 -77.0341 159° South  Level Estimated
Sun 12:38:00 PM 38.3173 -76.9947 175° South  Level Estimated
Sun 12:39:00 PM 38.2678 -76.9215 131° Southeast  Level FlightAware Approximate
Sun 12:40:00 PM 38.2183 -76.8484 131° Southeast  Level FlightAware Approximate
Sun 12:41:00 PM 38.1688 -76.7754 131° Southeast  Level FlightAware Approximate
Sun 12:42:00 PM 38.0975 -76.7428 183° South  Level Estimated
Sun 12:43:00 PM 38.0238 -76.7200 166° South  Level FlightAware Approximate
Sun 12:44:00 PM 37.9501 -76.6974 166° South  Level FlightAware Approximate
Sun 12:45:00 PM 37.8792 -76.6636 142° Southeast  Level Estimated
Sun 12:46:00 PM 37.8083 -76.6298 130° Southeast  Level Estimated
Sun 12:47:00 PM 37.7373 -76.5961 142° Southeast  Level Estimated
Sun 12:48:00 PM 37.6663 -76.5625 142° Southeast  Level Estimated
Sun 12:49:00 PM 37.5953 -76.5289 135° Southeast  Level Estimated
Sun 12:50:00 PM 37.5244 -76.4954 169° South  Level Estimated
Sun 12:51:00 PM 37.4534 -76.4620 172° South  Level Estimated
Sun 12:52:00 PM 37.4001 -76.3941 135° Southeast  Level FlightAware Approximate
Sun 12:53:00 PM 37.3469 -76.3262 135° Southeast  Level FlightAware Approximate
Sun 12:54:00 PM 37.2729 -76.3057 171° South  Level Estimated
Sun 12:55:00 PM 37.2028 -76.2693 158° South  Level FlightAware Approximate
Sun 12:56:00 PM 37.1282 -76.2528 158° South  Level Estimated
Sun 12:57:00 PM 37.0535 -76.2363 171° South  Level Estimated
Sun 12:58:00 PM 36.9789 -76.2198 180° South  Level Estimated
Sun 12:59:00 PM 36.9042 -76.2033 180° South  Level Estimated
Sun 01:00:00 PM 36.8946 -76.2012 180° South  Level Estimated
Sun 01:01:00 PM 36.8946 -76.2012 180° South  Level Estimated
Sun 01:02:00 PM 36.8946 -76.2012 180° South  Level Estimated
Sun 01:03:00 PM 36.8946 -76.2012 180° South  Level Estimated
Sun 01:04:00 PM 36.8946 -76.2012 180° South  Level Estimated
Sun 01:05:00 PM 36.8946 -76.2012 180° South  Level Estimated
Sun 01:06:00 PM 36.8946 -76.2012 180° South  Level Estimated

Login

Don't have an account? Register now (free) for customized features, flight alerts, and more!